63.5°F
Current conditions from King Hill
Updated every 5 minutes
 
  Wednesday September 3, 2014

Station Historical Data
Daily Summary for June 7, 2011 Units:  Both    English   Metric
« Previous Day
Next Day »
Daily Weekly Monthly Yearly Custom
  High: Low: Average:
Temperature: 83.7 °F /  28.7 °C 52.1 °F /  11.2 °C 67.1 °F /  19.5 °C
Dew Point: 65.8 °F /  18.8 °C 50.5 °F /  10.3 °C 57 °F /  13.9 °C
Humidity: 96% 42% 73%
Wind Speed: 5.0mph /  8km/h - 2.2mph /  3.5km/h
Wind Gust: 12.0mph /  19.3km/h - -
Wind- - WSW
Pressure: 29.92 in /  1013.1 hPa 29.74 in /  1007 hPa -
Precipitation: 0.00 in /  0 mm    
Historical Graphs
 
 
Tabular Data for June 7, 2011
Time Temperature Dew Point Pressure Wind Wind Speed Wind Gust Humidity Daily Rainfall
00:00 55.3 °F /  12.9 °C 52.1 °F /  11.2 °C 29.92in /  1013.1hPa Calm     89% 0.00in /  0mm
00:05 55.1 °F /  12.8 °C 51.9 °F /  11.1 °C 29.92in /  1013.1hPa Calm     89% 0.00in /  0mm
00:10 55.1 °F /  12.8 °C 51.9 °F /  11.1 °C 29.92in /  1013.1hPa Calm     89% 0.00in /  0mm
00:15 55.0 °F /  12.8 °C 51.8 °F /  11 °C 29.92in /  1013.1hPa Calm     89% 0.00in /  0mm
00:20 55.0 °F /  12.8 °C 52.1 °F /  11.2 °C 29.92in /  1013.1hPa Calm     90% 0.00in /  0mm
00:25 54.9 °F /  12.7 °C 52.0 °F /  11.1 °C 29.92in /  1013.1hPa Calm     90% 0.00in /  0mm
00:30 54.8 °F /  12.7 °C 51.9 °F /  11.1 °C 29.92in /  1013.1hPa Calm     90% 0.00in /  0mm
00:35 54.8 °F /  12.7 °C 51.9 °F /  11.1 °C 29.92in /  1013.1hPa Calm     90% 0.00in /  0mm
00:40 54.9 °F /  12.7 °C 52.3 °F /  11.3 °C 29.92in /  1013.1hPa Calm     91% 0.00in /  0mm
00:45 55.0 °F /  12.8 °C 52.4 °F /  11.3 °C 29.92in /  1013.1hPa Calm     91% 0.00in /  0mm
00:50 55.0 °F /  12.8 °C 52.4 °F /  11.3 °C 29.92in /  1013.1hPa Calm     91% 0.00in /  0mm
00:55 54.9 °F /  12.7 °C 52.6 °F /  11.4 °C 29.92in /  1013.1hPa Calm     92% 0.00in /  0mm
01:00 54.7 °F /  12.6 °C 52.4 °F /  11.3 °C 29.92in /  1013.1hPa Calm     92% 0.00in /  0mm
01:10 54.4 °F /  12.4 °C 52.1 °F /  11.2 °C 29.91in /  1012.8hPa Calm     92% 0.00in /  0mm
01:15 54.3 °F /  12.4 °C 52.0 °F /  11.1 °C 29.91in /  1012.8hPa Calm     92% 0.00in /  0mm
01:20 54.2 °F /  12.3 °C 51.9 °F /  11.1 °C 29.91in /  1012.8hPa Calm     92% 0.00in /  0mm
01:25 54.0 °F /  12.2 °C 51.7 °F /  10.9 °C 29.91in /  1012.8hPa Calm     92% 0.00in /  0mm
01:30 54.0 °F /  12.2 °C 51.7 °F /  10.9 °C 29.91in /  1012.8hPa Calm     92% 0.00in /  0mm
01:35 54.0 °F /  12.2 °C 51.7 °F /  10.9 °C 29.91in /  1012.8hPa Calm     92% 0.00in /  0mm
01:40 53.9 °F /  12.2 °C 51.6 °F /  10.9 °C 29.91in /  1012.8hPa Calm     92% 0.00in /  0mm
01:45 53.9 °F /  12.2 °C 51.6 °F /  10.9 °C 29.91in /  1012.8hPa Calm     92% 0.00in /  0mm
01:50 53.7 °F /  12.1 °C 51.4 °F /  10.8 °C 29.91in /  1012.8hPa Calm     92% 0.00in /  0mm
01:55 53.7 °F /  12.1 °C 51.7 °F /  10.9 °C 29.90in /  1012.4hPa Calm     93% 0.00in /  0mm
02:00 53.9 °F /  12.2 °C 51.9 °F /  11.1 °C 29.90in /  1012.4hPa Calm     93% 0.00in /  0mm
02:05 53.9 °F /  12.2 °C 51.9 °F /  11.1 °C 29.90in /  1012.4hPa Calm     93% 0.00in /  0mm
02:10 53.7 °F /  12.1 °C 51.7 °F /  10.9 °C 29.90in /  1012.4hPa Calm     93% 0.00in /  0mm
02:15 53.6 °F /  12 °C 51.6 °F /  10.9 °C 29.90in /  1012.4hPa Calm     93% 0.00in /  0mm
02:20 53.5 °F /  11.9 °C 51.5 °F /  10.8 °C 29.90in /  1012.4hPa Calm     93% 0.00in /  0mm
02:25 53.5 °F /  11.9 °C 51.5 °F /  10.8 °C 29.90in /  1012.4hPa Calm     93% 0.00in /  0mm
02:30 53.4 °F /  11.9 °C 51.4 °F /  10.8 °C 29.90in /  1012.4hPa Calm     93% 0.00in /  0mm
02:40 53.2 °F /  11.8 °C 51.2 °F /  10.7 °C 29.90in /  1012.4hPa Calm     93% 0.00in /  0mm
02:45 53.4 °F /  11.9 °C 51.7 °F /  10.9 °C 29.89in /  1012.1hPa Calm     94% 0.00in /  0mm
02:50 53.3 °F /  11.8 °C 51.3 °F /  10.7 °C 29.89in /  1012.1hPa Calm     93% 0.00in /  0mm
02:55 53.3 °F /  11.8 °C 51.3 °F /  10.7 °C 29.90in /  1012.4hPa Calm     93% 0.00in /  0mm
03:00 53.4 °F /  11.9 °C 51.7 °F /  10.9 °C 29.90in /  1012.4hPa Calm     94% 0.00in /  0mm
03:05 53.3 °F /  11.8 °C 51.3 °F /  10.7 °C 29.90in /  1012.4hPa Calm     93% 0.00in /  0mm
03:10 53.1 °F /  11.7 °C 51.1 °F /  10.6 °C 29.89in /  1012.1hPa Calm     93% 0.00in /  0mm
03:20 53.0 °F /  11.7 °C 51.3 °F /  10.7 °C 29.89in /  1012.1hPa Calm     94% 0.00in /  0mm
03:25 53.1 °F /  11.7 °C 51.4 °F /  10.8 °C 29.89in /  1012.1hPa Calm     94% 0.00in /  0mm
03:30 52.8 °F /  11.6 °C 51.1 °F /  10.6 °C 29.89in /  1012.1hPa Calm     94% 0.00in /  0mm
03:35 52.8 °F /  11.6 °C 51.1 °F /  10.6 °C 29.89in /  1012.1hPa Calm     94% 0.00in /  0mm
03:40 52.6 °F /  11.4 °C 50.9 °F /  10.5 °C 29.89in /  1012.1hPa Calm     94% 0.00in /  0mm
03:45 52.5 °F /  11.4 °C 50.5 °F /  10.3 °C 29.89in /  1012.1hPa Calm     93% 0.00in /  0mm
03:50 52.3 °F /  11.3 °C 50.6 °F /  10.3 °C 29.89in /  1012.1hPa Calm     94% 0.00in /  0mm
03:55 52.5 °F /  11.4 °C 50.8 °F /  10.4 °C 29.89in /  1012.1hPa Calm     94% 0.00in /  0mm
04:00 52.5 °F /  11.4 °C 50.8 °F /  10.4 °C 29.88in /  1011.7hPa Calm     94% 0.00in /  0mm
04:05 52.7 °F /  11.5 °C 51.0 °F /  10.6 °C 29.89in /  1012.1hPa Calm     94% 0.00in /  0mm
04:10 52.6 °F /  11.4 °C 50.9 °F /  10.5 °C 29.89in /  1012.1hPa Calm     94% 0.00in /  0mm
04:15 52.5 °F /  11.4 °C 50.8 °F /  10.4 °C 29.88in /  1011.7hPa Calm     94% 0.00in /  0mm
04:20 52.3 °F /  11.3 °C 50.6 °F /  10.3 °C 29.88in /  1011.7hPa Calm     94% 0.00in /  0mm
04:25 52.3 °F /  11.3 °C 50.6 °F /  10.3 °C 29.88in /  1011.7hPa Calm     94% 0.00in /  0mm
04:30 52.5 °F /  11.4 °C 51.1 °F /  10.6 °C 29.88in /  1011.7hPa Calm     95% 0.00in /  0mm
04:35 52.7 °F /  11.5 °C 51.3 °F /  10.7 °C 29.88in /  1011.7hPa Calm     95% 0.00in /  0mm
04:40 52.7 °F /  11.5 °C 51.3 °F /  10.7 °C 29.88in /  1011.7hPa Calm   1.0mph /  1.6km/h 95% 0.00in /  0mm
04:45 52.7 °F /  11.5 °C 51.3 °F /  10.7 °C 29.89in /  1012.1hPa Calm   1.0mph /  1.6km/h 95% 0.00in /  0mm
04:50 52.6 °F /  11.4 °C 51.2 °F /  10.7 °C 29.89in /  1012.1hPa Calm     95% 0.00in /  0mm
05:00 52.1 °F /  11.2 °C 50.7 °F /  10.4 °C 29.89in /  1012.1hPa Calm     95% 0.00in /  0mm
05:05 52.2 °F /  11.2 °C 50.8 °F /  10.4 °C 29.89in /  1012.1hPa Calm     95% 0.00in /  0mm
05:10 52.4 °F /  11.3 °C 51.0 °F /  10.6 °C 29.89in /  1012.1hPa Calm     95% 0.00in /  0mm
05:15 52.6 °F /  11.4 °C 51.2 °F /  10.7 °C 29.89in /  1012.1hPa WNW 1.0mph /  1.6km/h 3.0mph /  4.8km/h 95% 0.00in /  0mm
05:20 53.0 °F /  11.7 °C 51.6 °F /  10.9 °C 29.88in /  1011.7hPa Calm   3.0mph /  4.8km/h 95% 0.00in /  0mm
05:25 53.5 °F /  11.9 °C 52.4 °F /  11.3 °C 29.88in /  1011.7hPa WNW 1.0mph /  1.6km/h 3.0mph /  4.8km/h 96% 0.00in /  0mm
05:30 53.9 °F /  12.2 °C 52.5 °F /  11.4 °C 29.88in /  1011.7hPa Calm   3.0mph /  4.8km/h 95% 0.00in /  0mm
05:35 53.5 °F /  11.9 °C 52.1 °F /  11.2 °C 29.88in /  1011.7hPa West 1.0mph /  1.6km/h 3.0mph /  4.8km/h 95% 0.00in /  0mm
05:40 53.0 °F /  11.7 °C 51.3 °F /  10.7 °C 29.88in /  1011.7hPa Calm   3.0mph /  4.8km/h 94% 0.00in /  0mm
05:45 52.8 °F /  11.6 °C 51.1 °F /  10.6 °C 29.87in /  1011.4hPa Calm   3.0mph /  4.8km/h 94% 0.00in /  0mm
05:50 52.7 °F /  11.5 °C 51.0 °F /  10.6 °C 29.88in /  1011.7hPa Calm     94% 0.00in /  0mm
05:55 52.6 °F /  11.4 °C 50.9 °F /  10.5 °C 29.88in /  1011.7hPa Calm     94% 0.00in /  0mm
06:00 52.6 °F /  11.4 °C 51.2 °F /  10.7 °C 29.88in /  1011.7hPa Calm     95% 0.00in /  0mm
06:05 52.6 °F /  11.4 °C 51.2 °F /  10.7 °C 29.89in /  1012.1hPa Calm     95% 0.00in /  0mm
06:10 52.4 °F /  11.3 °C 50.7 °F /  10.4 °C 29.89in /  1012.1hPa Calm     94% 0.00in /  0mm
06:15 52.5 °F /  11.4 °C 51.1 °F /  10.6 °C 29.88in /  1011.7hPa Calm   2.0mph /  3.2km/h 95% 0.00in /  0mm
06:20 52.9 °F /  11.6 °C 51.5 °F /  10.8 °C 29.88in /  1011.7hPa SW 1.0mph /  1.6km/h 3.0mph /  4.8km/h 95% 0.00in /  0mm
06:25 53.5 °F /  11.9 °C 52.1 °F /  11.2 °C 29.89in /  1012.1hPa Calm   3.0mph /  4.8km/h 95% 0.00in /  0mm
06:30 53.7 °F /  12.1 °C 52.3 °F /  11.3 °C 29.89in /  1012.1hPa Calm   1.0mph /  1.6km/h 95% 0.00in /  0mm
06:40 54.7 °F /  12.6 °C 53.3 °F /  11.8 °C 29.89in /  1012.1hPa Calm   1.0mph /  1.6km/h 95% 0.00in /  0mm
06:45 55.2 °F /  12.9 °C 53.8 °F /  12.1 °C 29.89in /  1012.1hPa Calm   3.0mph /  4.8km/h 95% 0.00in /  0mm
06:50 55.8 °F /  13.2 °C 54.4 °F /  12.4 °C 29.89in /  1012.1hPa SW 1.0mph /  1.6km/h 3.0mph /  4.8km/h 95% 0.00in /  0mm
06:55 56.5 °F /  13.6 °C 55.1 °F /  12.8 °C 29.89in /  1012.1hPa Calm   3.0mph /  4.8km/h 95% 0.00in /  0mm
07:00 57.3 °F /  14.1 °C 55.6 °F /  13.1 °C 29.89in /  1012.1hPa Calm   4.0mph /  6.4km/h 94% 0.00in /  0mm
07:10 59.1 °F /  15.1 °C 56.5 °F /  13.6 °C 29.89in /  1012.1hPa Calm   3.0mph /  4.8km/h 91% 0.00in /  0mm
07:15 60.0 °F /  15.6 °C 56.4 °F /  13.6 °C 29.89in /  1012.1hPa SW 1.0mph /  1.6km/h 3.0mph /  4.8km/h 88% 0.00in /  0mm
07:20 60.8 °F /  16 °C 56.3 °F /  13.5 °C 29.89in /  1012.1hPa SW 1.0mph /  1.6km/h 5.0mph /  8km/h 85% 0.00in /  0mm
07:25 61.6 °F /  16.4 °C 56.1 °F /  13.4 °C 29.89in /  1012.1hPa SW 1.0mph /  1.6km/h 5.0mph /  8km/h 82% 0.00in /  0mm
07:30 62.3 °F /  16.8 °C 56.1 °F /  13.4 °C 29.89in /  1012.1hPa Calm   4.0mph /  6.4km/h 80% 0.00in /  0mm
07:35 62.8 °F /  17.1 °C 56.5 °F /  13.6 °C 29.89in /  1012.1hPa Calm   2.0mph /  3.2km/h 80% 0.00in /  0mm
07:40 63.3 °F /  17.4 °C 56.7 °F /  13.7 °C 29.89in /  1012.1hPa Calm   1.0mph /  1.6km/h 79% 0.00in /  0mm
07:45 63.8 °F /  17.7 °C 56.5 °F /  13.6 °C 29.90in /  1012.4hPa SW 2.0mph /  3.2km/h 5.0mph /  8km/h 77% 0.00in /  0mm
07:50 64.3 °F /  17.9 °C 56.9 °F /  13.8 °C 29.89in /  1012.1hPa Calm   5.0mph /  8km/h 77% 0.00in /  0mm
07:55 64.9 °F /  18.3 °C 56.8 °F /  13.8 °C 29.89in /  1012.1hPa SW 2.0mph /  3.2km/h 7.0mph /  11.3km/h 75% 0.00in /  0mm
08:00 65.7 °F /  18.7 °C 57.9 °F /  14.4 °C 29.90in /  1012.4hPa Calm   7.0mph /  11.3km/h 76% 0.00in /  0mm
08:05 66.5 °F /  19.2 °C 58.0 °F /  14.4 °C 29.90in /  1012.4hPa SW 1.0mph /  1.6km/h 7.0mph /  11.3km/h 74% 0.00in /  0mm
08:10 66.7 °F /  19.3 °C 57.4 °F /  14.1 °C 29.90in /  1012.4hPa SW 1.0mph /  1.6km/h 7.0mph /  11.3km/h 72% 0.00in /  0mm
08:15 67.2 °F /  19.6 °C 57.5 °F /  14.2 °C 29.90in /  1012.4hPa SSW 1.0mph /  1.6km/h 5.0mph /  8km/h 71% 0.00in /  0mm
08:20 67.6 °F /  19.8 °C 57.5 °F /  14.2 °C 29.90in /  1012.4hPa SSW 2.0mph /  3.2km/h 8.0mph /  12.9km/h 70% 0.00in /  0mm
08:25 67.8 °F /  19.9 °C 58.1 °F /  14.5 °C 29.89in /  1012.1hPa SSW 2.0mph /  3.2km/h 8.0mph /  12.9km/h 71% 0.00in /  0mm
08:30 68.0 °F /  20 °C 57.5 °F /  14.2 °C 29.89in /  1012.1hPa SW 3.0mph /  4.8km/h 9.0mph /  14.5km/h 69% 0.00in /  0mm
08:35 68.5 °F /  20.3 °C 58.7 °F /  14.8 °C 29.89in /  1012.1hPa SW 1.0mph /  1.6km/h 9.0mph /  14.5km/h 71% 0.00in /  0mm
08:40 69.1 °F /  20.6 °C 58.5 °F /  14.7 °C 29.89in /  1012.1hPa SSW 2.0mph /  3.2km/h 6.0mph /  9.7km/h 69% 0.00in /  0mm
08:45 69.5 °F /  20.8 °C 58.5 °F /  14.7 °C 29.89in /  1012.1hPa SSW 1.0mph /  1.6km/h 8.0mph /  12.9km/h 68% 0.00in /  0mm
08:50 69.8 °F /  21 °C 58.4 °F /  14.7 °C 29.89in /  1012.1hPa SW 2.0mph /  3.2km/h 8.0mph /  12.9km/h 67% 0.00in /  0mm
08:55 69.8 °F /  21 °C 58.8 °F /  14.9 °C 29.89in /  1012.1hPa SSW 2.0mph /  3.2km/h 8.0mph /  12.9km/h 68% 0.00in /  0mm
09:05 70.1 °F /  21.2 °C 58.6 °F /  14.8 °C 29.89in /  1012.1hPa SW 4.0mph /  6.4km/h 9.0mph /  14.5km/h 67% 0.00in /  0mm
09:10 70.3 °F /  21.3 °C 59.7 °F /  15.4 °C 29.89in /  1012.1hPa SW 2.0mph /  3.2km/h 9.0mph /  14.5km/h 69% 0.00in /  0mm
09:15 70.7 °F /  21.5 °C 59.6 °F /  15.3 °C 29.89in /  1012.1hPa SW 2.0mph /  3.2km/h 8.0mph /  12.9km/h 68% 0.00in /  0mm
09:20 71.0 °F /  21.7 °C 60.7 °F /  15.9 °C 29.89in /  1012.1hPa WSW 2.0mph /  3.2km/h 8.0mph /  12.9km/h 70% 0.00in /  0mm
09:25 71.1 °F /  21.7 °C 60.0 °F /  15.6 °C 29.89in /  1012.1hPa Calm   10.0mph /  16.1km/h 68% 0.00in /  0mm
09:30 71.7 °F /  22.1 °C 61.4 °F /  16.3 °C 29.88in /  1011.7hPa Calm   10.0mph /  16.1km/h 70% 0.00in /  0mm
09:35 72.1 °F /  22.3 °C 60.1 °F /  15.6 °C 29.88in /  1011.7hPa SSW 3.0mph /  4.8km/h 8.0mph /  12.9km/h 66% 0.00in /  0mm
09:40 72.2 °F /  22.3 °C 58.9 °F /  14.9 °C 29.88in /  1011.7hPa SSW 5.0mph /  8km/h 12.0mph /  19.3km/h 63% 0.00in /  0mm
09:45 72.8 °F /  22.7 °C 60.4 °F /  15.8 °C 29.88in /  1011.7hPa Calm   12.0mph /  19.3km/h 65% 0.00in /  0mm
09:50 73.2 °F /  22.9 °C 60.7 °F /  15.9 °C 29.88in /  1011.7hPa SW 2.0mph /  3.2km/h 11.0mph /  17.7km/h 65% 0.00in /  0mm
09:55 73.2 °F /  22.9 °C 60.7 °F /  15.9 °C 29.88in /  1011.7hPa SW 1.0mph /  1.6km/h 11.0mph /  17.7km/h 65% 0.00in /  0mm
10:05 73.8 °F /  23.2 °C 60.4 °F /  15.8 °C 29.87in /  1011.4hPa SSW 1.0mph /  1.6km/h 10.0mph /  16.1km/h 63% 0.00in /  0mm
10:10 74.2 °F /  23.4 °C 60.8 °F /  16 °C 29.88in /  1011.7hPa SW 2.0mph /  3.2km/h 8.0mph /  12.9km/h 63% 0.00in /  0mm
10:15 74.8 °F /  23.8 °C 60.5 °F /  15.8 °C 29.88in /  1011.7hPa SW 5.0mph /  8km/h 9.0mph /  14.5km/h 61% 0.00in /  0mm
10:20 74.7 °F /  23.7 °C 61.3 °F /  16.3 °C 29.88in /  1011.7hPa SW 3.0mph /  4.8km/h 9.0mph /  14.5km/h 63% 0.00in /  0mm
10:25 74.9 °F /  23.8 °C 62.4 °F /  16.9 °C 29.87in /  1011.4hPa SW 3.0mph /  4.8km/h 8.0mph /  12.9km/h 65% 0.00in /  0mm
10:35 75.8 °F /  24.3 °C 61.9 °F /  16.6 °C 29.87in /  1011.4hPa WSW 1.0mph /  1.6km/h 7.0mph /  11.3km/h 62% 0.00in /  0mm
10:40 76.0 °F /  24.4 °C 61.1 °F /  16.2 °C 29.87in /  1011.4hPa SW 5.0mph /  8km/h 8.0mph /  12.9km/h 60% 0.00in /  0mm
10:45 75.9 °F /  24.4 °C 61.5 °F /  16.4 °C 29.86in /  1011.1hPa SSW 2.0mph /  3.2km/h 8.0mph /  12.9km/h 61% 0.00in /  0mm
10:50 76.2 °F /  24.6 °C 61.8 °F /  16.6 °C 29.87in /  1011.4hPa SW 3.0mph /  4.8km/h 9.0mph /  14.5km/h 61% 0.00in /  0mm
10:55 76.4 °F /  24.7 °C 62.9 °F /  17.2 °C 29.87in /  1011.4hPa NW 3.0mph /  4.8km/h 9.0mph /  14.5km/h 63% 0.00in /  0mm
11:00 76.5 °F /  24.7 °C 62.1 °F /  16.7 °C 29.86in /  1011.1hPa SW 1.0mph /  1.6km/h 8.0mph /  12.9km/h 61% 0.00in /  0mm
11:10 76.7 °F /  24.8 °C 58.8 °F /  14.9 °C 29.86in /  1011.1hPa West 2.0mph /  3.2km/h 11.0mph /  17.7km/h 54% 0.00in /  0mm
11:15 76.6 °F /  24.8 °C 59.8 °F /  15.4 °C 29.86in /  1011.1hPa West 3.0mph /  4.8km/h 9.0mph /  14.5km/h 56% 0.00in /  0mm
11:20 76.5 °F /  24.7 °C 58.6 °F /  14.8 °C 29.86in /  1011.1hPa Calm   9.0mph /  14.5km/h 54% 0.00in /  0mm
11:25 76.8 °F /  24.9 °C 59.4 °F /  15.2 °C 29.86in /  1011.1hPa SW 3.0mph /  4.8km/h 8.0mph /  12.9km/h 55% 0.00in /  0mm
11:30 77.1 °F /  25.1 °C 57.1 °F /  13.9 °C 29.86in /  1011.1hPa SW 2.0mph /  3.2km/h 8.0mph /  12.9km/h 50% 0.00in /  0mm
11:35 77.5 °F /  25.3 °C 57.4 °F /  14.1 °C 29.86in /  1011.1hPa Calm   7.0mph /  11.3km/h 50% 0.00in /  0mm
11:40 77.8 °F /  25.4 °C 59.8 °F /  15.4 °C 29.86in /  1011.1hPa WSW 2.0mph /  3.2km/h 6.0mph /  9.7km/h 54% 0.00in /  0mm
11:45 78.0 °F /  25.6 °C 57.3 °F /  14.1 °C 29.86in /  1011.1hPa WNW 3.0mph /  4.8km/h 6.0mph /  9.7km/h 49% 0.00in /  0mm
11:50 78.3 °F /  25.7 °C 58.7 °F /  14.8 °C 29.86in /  1011.1hPa NW 4.0mph /  6.4km/h 8.0mph /  12.9km/h 51% 0.00in /  0mm
12:00 78.2 °F /  25.7 °C 58.6 °F /  14.8 °C 29.85in /  1010.7hPa SW 1.0mph /  1.6km/h 7.0mph /  11.3km/h 51% 0.00in /  0mm
12:05 78.5 °F /  25.8 °C 57.2 °F /  14 °C 29.85in /  1010.7hPa WSW 3.0mph /  4.8km/h 6.0mph /  9.7km/h 48% 0.00in /  0mm
12:10 78.7 °F /  25.9 °C 60.2 °F /  15.7 °C 29.85in /  1010.7hPa SSW 2.0mph /  3.2km/h 7.0mph /  11.3km/h 53% 0.00in /  0mm
12:15 79.3 °F /  26.3 °C 57.4 °F /  14.1 °C 29.85in /  1010.7hPa WSW 1.0mph /  1.6km/h 7.0mph /  11.3km/h 47% 0.00in /  0mm
12:20 79.0 °F /  26.1 °C 58.2 °F /  14.6 °C 29.84in /  1010.4hPa NW 3.0mph /  4.8km/h 9.0mph /  14.5km/h 49% 0.00in /  0mm
12:25 79.3 °F /  26.3 °C 58.5 °F /  14.7 °C 29.84in /  1010.4hPa NW 3.0mph /  4.8km/h 9.0mph /  14.5km/h 49% 0.00in /  0mm
12:30 79.4 °F /  26.3 °C 60.8 °F /  16 °C 29.84in /  1010.4hPa SSW 2.0mph /  3.2km/h 7.0mph /  11.3km/h 53% 0.00in /  0mm
12:35 79.8 °F /  26.6 °C 60.1 °F /  15.6 °C 29.84in /  1010.4hPa WNW 2.0mph /  3.2km/h 7.0mph /  11.3km/h 51% 0.00in /  0mm
12:40 80.1 °F /  26.7 °C 56.9 °F /  13.8 °C 29.83in /  1010hPa WNW 2.0mph /  3.2km/h 7.0mph /  11.3km/h 45% 0.00in /  0mm
12:45 79.9 °F /  26.6 °C 60.7 °F /  15.9 °C 29.83in /  1010hPa SW 2.0mph /  3.2km/h 8.0mph /  12.9km/h 52% 0.00in /  0mm
12:50 79.6 °F /  26.4 °C 56.4 °F /  13.6 °C 29.83in /  1010hPa Calm   8.0mph /  12.9km/h 45% 0.00in /  0mm
12:55 79.7 °F /  26.5 °C 58.3 °F /  14.6 °C 29.83in /  1010hPa WSW 3.0mph /  4.8km/h 7.0mph /  11.3km/h 48% 0.00in /  0mm
13:00 79.9 °F /  26.6 °C 59.1 °F /  15.1 °C 29.83in /  1010hPa WNW 4.0mph /  6.4km/h 7.0mph /  11.3km/h 49% 0.00in /  0mm
13:05 79.8 °F /  26.6 °C 59.5 °F /  15.3 °C 29.83in /  1010hPa West 1.0mph /  1.6km/h 7.0mph /  11.3km/h 50% 0.00in /  0mm
13:10 80.0 °F /  26.7 °C 57.4 °F /  14.1 °C 29.82in /  1009.7hPa SW 3.0mph /  4.8km/h 7.0mph /  11.3km/h 46% 0.00in /  0mm
13:20 80.1 °F /  26.7 °C 58.1 °F /  14.5 °C 29.82in /  1009.7hPa SW 3.0mph /  4.8km/h 8.0mph /  12.9km/h 47% 0.00in /  0mm
13:25 80.4 °F /  26.9 °C 56.5 °F /  13.6 °C 29.82in /  1009.7hPa Calm   8.0mph /  12.9km/h 44% 0.00in /  0mm
13:30 80.6 °F /  27 °C 57.9 °F /  14.4 °C 29.82in /  1009.7hPa WNW 2.0mph /  3.2km/h 7.0mph /  11.3km/h 46% 0.00in /  0mm
13:35 80.8 °F /  27.1 °C 57.5 °F /  14.2 °C 29.81in /  1009.4hPa Calm   5.0mph /  8km/h 45% 0.00in /  0mm
13:40 81.6 °F /  27.6 °C 60.0 °F /  15.6 °C 29.81in /  1009.4hPa Calm   1.0mph /  1.6km/h 48% 0.00in /  0mm
13:45 82.1 °F /  27.8 °C 61.1 °F /  16.2 °C 29.81in /  1009.4hPa SW 4.0mph /  6.4km/h 8.0mph /  12.9km/h 49% 0.00in /  0mm
13:50 81.9 °F /  27.7 °C 60.9 °F /  16.1 °C 29.81in /  1009.4hPa West 3.0mph /  4.8km/h 8.0mph /  12.9km/h 49% 0.00in /  0mm
13:55 81.6 °F /  27.6 °C 57.6 °F /  14.2 °C 29.81in /  1009.4hPa Calm   6.0mph /  9.7km/h 44% 0.00in /  0mm
14:00 80.7 °F /  27.1 °C 56.8 °F /  13.8 °C 29.81in /  1009.4hPa West 3.0mph /  4.8km/h 8.0mph /  12.9km/h 44% 0.00in /  0mm
14:05 79.9 °F /  26.6 °C 59.6 °F /  15.3 °C 29.81in /  1009.4hPa Calm   8.0mph /  12.9km/h 50% 0.00in /  0mm
14:10 79.6 °F /  26.4 °C 57.0 °F /  13.9 °C 29.81in /  1009.4hPa Calm   4.0mph /  6.4km/h 46% 0.00in /  0mm
14:15 79.7 °F /  26.5 °C 56.5 °F /  13.6 °C 29.80in /  1009hPa Calm   1.0mph /  1.6km/h 45% 0.00in /  0mm
14:20 80.0 °F /  26.7 °C 61.9 °F /  16.6 °C 29.80in /  1009hPa Calm   1.0mph /  1.6km/h 54% 0.00in /  0mm
14:25 80.8 °F /  27.1 °C 57.5 °F /  14.2 °C 29.80in /  1009hPa Calm   1.0mph /  1.6km/h 45% 0.00in /  0mm
14:30 81.4 °F /  27.4 °C 60.4 °F /  15.8 °C 29.80in /  1009hPa Calm   1.0mph /  1.6km/h 49% 0.00in /  0mm
14:35 81.4 °F /  27.4 °C 61.6 °F /  16.4 °C 29.79in /  1008.7hPa Calm   1.0mph /  1.6km/h 51% 0.00in /  0mm
14:40 81.1 °F /  27.3 °C 57.2 °F /  14 °C 29.79in /  1008.7hPa Calm   1.0mph /  1.6km/h 44% 0.00in /  0mm
14:45 81.1 °F /  27.3 °C 57.8 °F /  14.3 °C 29.78in /  1008.4hPa Calm   1.0mph /  1.6km/h 45% 0.00in /  0mm
14:50 80.8 °F /  27.1 °C 58.7 °F /  14.8 °C 29.78in /  1008.4hPa Calm   1.0mph /  1.6km/h 47% 0.00in /  0mm
15:00 80.5 °F /  26.9 °C 61.8 °F /  16.6 °C 29.78in /  1008.4hPa Calm     53% 0.00in /  0mm
15:05 80.9 °F /  27.2 °C 60.5 °F /  15.8 °C 29.78in /  1008.4hPa Calm     50% 0.00in /  0mm
15:10 80.8 °F /  27.1 °C 57.5 °F /  14.2 °C 29.78in /  1008.4hPa Calm     45% 0.00in /  0mm
15:15 81.1 °F /  27.3 °C 56.5 °F /  13.6 °C 29.78in /  1008.4hPa Calm   3.0mph /  4.8km/h 43% 0.00in /  0mm
15:20 81.7 °F /  27.6 °C 60.1 °F /  15.6 °C 29.77in /  1008hPa Calm   3.0mph /  4.8km/h 48% 0.00in /  0mm
15:30 82.1 °F /  27.8 °C 58.1 °F /  14.5 °C 29.77in /  1008hPa Calm   3.0mph /  4.8km/h 44% 0.00in /  0mm
15:40 83.0 °F /  28.3 °C 61.3 °F /  16.3 °C 29.77in /  1008hPa Calm   1.0mph /  1.6km/h 48% 0.00in /  0mm
15:45 83.6 °F /  28.7 °C 62.4 °F /  16.9 °C 29.78in /  1008.4hPa Calm   1.0mph /  1.6km/h 49% 0.00in /  0mm
15:55 83.3 °F /  28.5 °C 57.8 °F /  14.3 °C 29.77in /  1008hPa Calm   3.0mph /  4.8km/h 42% 0.00in /  0mm
16:00 83.4 °F /  28.6 °C 57.9 °F /  14.4 °C 29.77in /  1008hPa Calm   1.0mph /  1.6km/h 42% 0.00in /  0mm
17:05 83.2 °F /  28.4 °C 62.1 °F /  16.7 °C 29.76in /  1007.7hPa Calm   1.0mph /  1.6km/h 49% 0.00in /  0mm
17:10 83.3 °F /  28.5 °C 59.1 °F /  15.1 °C 29.75in /  1007.3hPa Calm   4.0mph /  6.4km/h 44% 0.00in /  0mm
17:15 83.6 °F /  28.7 °C 58.8 °F /  14.9 °C 29.75in /  1007.3hPa Calm   4.0mph /  6.4km/h 43% 0.00in /  0mm
17:20 83.7 °F /  28.7 °C 60.8 °F /  16 °C 29.75in /  1007.3hPa SW 1.0mph /  1.6km/h 3.0mph /  4.8km/h 46% 0.00in /  0mm
17:25 83.6 °F /  28.7 °C 58.8 °F /  14.9 °C 29.75in /  1007.3hPa SW 3.0mph /  4.8km/h 6.0mph /  9.7km/h 43% 0.00in /  0mm
17:30 83.0 °F /  28.3 °C 59.5 °F /  15.3 °C 29.74in /  1007hPa Calm   6.0mph /  9.7km/h 45% 0.00in /  0mm
17:35 82.9 °F /  28.3 °C 60.6 °F /  15.9 °C 29.75in /  1007.3hPa Calm   5.0mph /  8km/h 47% 0.00in /  0mm
17:40 82.8 °F /  28.2 °C 61.1 °F /  16.2 °C 29.75in /  1007.3hPa Calm   5.0mph /  8km/h 48% 0.00in /  0mm
17:45 82.7 °F /  28.2 °C 58.6 °F /  14.8 °C 29.75in /  1007.3hPa Calm   3.0mph /  4.8km/h 44% 0.00in /  0mm
17:50 82.7 °F /  28.2 °C 58.0 °F /  14.4 °C 29.75in /  1007.3hPa Calm   3.0mph /  4.8km/h 43% 0.00in /  0mm
17:55 82.9 °F /  28.3 °C 61.2 °F /  16.2 °C 29.75in /  1007.3hPa Calm   1.0mph /  1.6km/h 48% 0.00in /  0mm
18:00 82.8 °F /  28.2 °C 62.3 °F /  16.8 °C 29.74in /  1007hPa Calm   5.0mph /  8km/h 50% 0.00in /  0mm
18:05 83.0 °F /  28.3 °C 61.3 °F /  16.3 °C 29.74in /  1007hPa Calm   5.0mph /  8km/h 48% 0.00in /  0mm
18:10 83.0 °F /  28.3 °C 58.9 °F /  14.9 °C 29.75in /  1007.3hPa SW 2.0mph /  3.2km/h 5.0mph /  8km/h 44% 0.00in /  0mm
18:15 82.6 °F /  28.1 °C 59.1 °F /  15.1 °C 29.75in /  1007.3hPa Calm   5.0mph /  8km/h 45% 0.00in /  0mm
18:20 82.2 °F /  27.9 °C 59.4 °F /  15.2 °C 29.75in /  1007.3hPa Calm   1.0mph /  1.6km/h 46% 0.00in /  0mm
18:25 82.1 °F /  27.8 °C 59.9 °F /  15.5 °C 29.75in /  1007.3hPa Calm   1.0mph /  1.6km/h 47% 0.00in /  0mm
18:30 82.0 °F /  27.8 °C 61.6 °F /  16.4 °C 29.75in /  1007.3hPa Calm   1.0mph /  1.6km/h 50% 0.00in /  0mm
18:35 81.9 °F /  27.7 °C 60.3 °F /  15.7 °C 29.75in /  1007.3hPa WSW 1.0mph /  1.6km/h 5.0mph /  8km/h 48% 0.00in /  0mm
18:40 81.6 °F /  27.6 °C 60.6 °F /  15.9 °C 29.75in /  1007.3hPa Calm   5.0mph /  8km/h 49% 0.00in /  0mm
18:45 80.9 °F /  27.2 °C 63.8 °F /  17.7 °C 29.75in /  1007.3hPa Calm   1.0mph /  1.6km/h 56% 0.00in /  0mm
18:50 80.0 °F /  26.7 °C 65.8 °F /  18.8 °C 29.75in /  1007.3hPa Calm   1.0mph /  1.6km/h 62% 0.00in /  0mm
18:55 78.7 °F /  25.9 °C 65.5 °F /  18.6 °C 29.75in /  1007.3hPa Calm     64% 0.00in /  0mm
19:00 77.5 °F /  25.3 °C 65.7 °F /  18.7 °C 29.76in /  1007.7hPa Calm     67% 0.00in /  0mm
19:25 73.7 °F /  23.2 °C 62.1 °F /  16.7 °C 29.77in /  1008hPa Calm     67% 0.00in /  0mm
19:30 73.4 °F /  23 °C 62.6 °F /  17 °C 29.76in /  1007.7hPa Calm     69% 0.00in /  0mm
19:35 73.2 °F /  22.9 °C 62.4 °F /  16.9 °C 29.76in /  1007.7hPa Calm     69% 0.00in /  0mm
19:40 73.1 °F /  22.8 °C 62.7 °F /  17.1 °C 29.77in /  1008hPa Calm     70% 0.00in /  0mm
19:45 72.9 °F /  22.7 °C 62.6 °F /  17 °C 29.77in /  1008hPa Calm   1.0mph /  1.6km/h 70% 0.00in /  0mm
19:50 72.4 °F /  22.4 °C 61.7 °F /  16.5 °C 29.77in /  1008hPa Calm   1.0mph /  1.6km/h 69% 0.00in /  0mm
19:55 72.0 °F /  22.2 °C 61.3 °F /  16.3 °C 29.77in /  1008hPa Calm     69% 0.00in /  0mm
20:00 71.6 °F /  22 °C 61.3 °F /  16.3 °C 29.77in /  1008hPa Calm   1.0mph /  1.6km/h 70% 0.00in /  0mm
20:05 71.3 °F /  21.8 °C 61.4 °F /  16.3 °C 29.77in /  1008hPa Calm   1.0mph /  1.6km/h 71% 0.00in /  0mm
20:10 70.9 °F /  21.6 °C 61.0 °F /  16.1 °C 29.78in /  1008.4hPa Calm     71% 0.00in /  0mm
20:15 70.6 °F /  21.4 °C 62.3 °F /  16.8 °C 29.77in /  1008hPa Calm     75% 0.00in /  0mm
20:20 70.0 °F /  21.1 °C 61.7 °F /  16.5 °C 29.77in /  1008hPa Calm     75% 0.00in /  0mm
20:25 69.5 °F /  20.8 °C 61.6 °F /  16.4 °C 29.77in /  1008hPa Calm     76% 0.00in /  0mm
20:30 68.7 °F /  20.4 °C 60.8 °F /  16 °C 29.77in /  1008hPa Calm     76% 0.00in /  0mm
20:40 67.2 °F /  19.6 °C 60.1 °F /  15.6 °C 29.77in /  1008hPa Calm     78% 0.00in /  0mm
20:45 66.7 °F /  19.3 °C 60.0 °F /  15.6 °C 29.78in /  1008.4hPa Calm     79% 0.00in /  0mm
20:50 66.3 °F /  19.1 °C 60.0 °F /  15.6 °C 29.78in /  1008.4hPa Calm     80% 0.00in /  0mm
21:00 65.4 °F /  18.6 °C 59.4 °F /  15.2 °C 29.78in /  1008.4hPa Calm     81% 0.00in /  0mm
21:05 65.1 °F /  18.4 °C 59.1 °F /  15.1 °C 29.79in /  1008.7hPa Calm     81% 0.00in /  0mm
21:10 64.8 °F /  18.2 °C 59.2 °F /  15.1 °C 29.79in /  1008.7hPa Calm     82% 0.00in /  0mm
21:15 64.6 °F /  18.1 °C 59.0 °F /  15 °C 29.79in /  1008.7hPa Calm     82% 0.00in /  0mm
21:20 64.3 °F /  17.9 °C 59.0 °F /  15 °C 29.79in /  1008.7hPa Calm     83% 0.00in /  0mm
21:25 64.2 °F /  17.9 °C 58.9 °F /  14.9 °C 29.79in /  1008.7hPa Calm     83% 0.00in /  0mm
21:30 64.2 °F /  17.9 °C 58.9 °F /  14.9 °C 29.79in /  1008.7hPa Calm     83% 0.00in /  0mm
21:35 64.1 °F /  17.8 °C 58.8 °F /  14.9 °C 29.79in /  1008.7hPa Calm     83% 0.00in /  0mm
21:40 63.9 °F /  17.7 °C 59.0 °F /  15 °C 29.79in /  1008.7hPa Calm     84% 0.00in /  0mm
21:45 63.8 °F /  17.7 °C 58.9 °F /  14.9 °C 29.79in /  1008.7hPa Calm     84% 0.00in /  0mm
21:50 63.8 °F /  17.7 °C 59.2 °F /  15.1 °C 29.79in /  1008.7hPa Calm     85% 0.00in /  0mm
21:55 63.6 °F /  17.6 °C 59.0 °F /  15 °C 29.80in /  1009hPa Calm     85% 0.00in /  0mm
22:00 63.5 °F /  17.5 °C 59.2 °F /  15.1 °C 29.80in /  1009hPa Calm     86% 0.00in /  0mm
22:05 63.3 °F /  17.4 °C 59.0 °F /  15 °C 29.80in /  1009hPa Calm     86% 0.00in /  0mm
22:10 63.2 °F /  17.3 °C 58.9 °F /  14.9 °C 29.80in /  1009hPa Calm     86% 0.00in /  0mm
22:15 63.1 °F /  17.3 °C 59.2 °F /  15.1 °C 29.80in /  1009hPa Calm     87% 0.00in /  0mm
22:20 63.0 °F /  17.2 °C 59.1 °F /  15.1 °C 29.80in /  1009hPa Calm     87% 0.00in /  0mm
22:25 63.0 °F /  17.2 °C 59.1 °F /  15.1 °C 29.80in /  1009hPa Calm     87% 0.00in /  0mm
22:30 63.1 °F /  17.3 °C 59.5 °F /  15.3 °C 29.80in /  1009hPa Calm     88% 0.00in /  0mm
22:35 63.2 °F /  17.3 °C 59.6 °F /  15.3 °C 29.80in /  1009hPa Calm     88% 0.00in /  0mm
22:40 63.2 °F /  17.3 °C 59.6 °F /  15.3 °C 29.80in /  1009hPa Calm     88% 0.00in /  0mm
22:45 63.1 °F /  17.3 °C 59.5 °F /  15.3 °C 29.80in /  1009hPa Calm     88% 0.00in /  0mm
22:50 63.0 °F /  17.2 °C 59.4 °F /  15.2 °C 29.80in /  1009hPa Calm     88% 0.00in /  0mm
22:55 62.9 °F /  17.2 °C 59.3 °F /  15.2 °C 29.80in /  1009hPa Calm     88% 0.00in /  0mm
23:00 62.8 °F /  17.1 °C 58.9 °F /  14.9 °C 29.80in /  1009hPa Calm     87% 0.00in /  0mm
23:05 62.7 °F /  17.1 °C 58.8 °F /  14.9 °C 29.80in /  1009hPa Calm     87% 0.00in /  0mm
23:10 62.6 °F /  17 °C 58.7 °F /  14.8 °C 29.80in /  1009hPa Calm     87% 0.00in /  0mm
23:20 62.3 °F /  16.8 °C 58.4 °F /  14.7 °C 29.80in /  1009hPa Calm     87% 0.00in /  0mm
23:25 62.1 °F /  16.7 °C 58.2 °F /  14.6 °C 29.80in /  1009hPa Calm     87% 0.00in /  0mm
23:30 62.1 °F /  16.7 °C 58.5 °F /  14.7 °C 29.80in /  1009hPa Calm     88% 0.00in /  0mm
23:35 61.9 °F /  16.6 °C 58.0 °F /  14.4 °C 29.80in /  1009hPa Calm     87% 0.00in /  0mm
23:40 61.8 °F /  16.6 °C 58.2 °F /  14.6 °C 29.80in /  1009hPa Calm     88% 0.00in /  0mm
23:45 61.9 °F /  16.6 °C 58.0 °F /  14.4 °C 29.80in /  1009hPa Calm     87% 0.00in /  0mm
23:50 62.0 °F /  16.7 °C 58.1 °F /  14.5 °C 29.80in /  1009hPa Calm   1.0mph /  1.6km/h 87% 0.00in /  0mm
23:55 62.1 °F /  16.7 °C 58.2 °F /  14.6 °C 29.80in /  1009hPa Calm   1.0mph /  1.6km/h 87% 0.00in /  0mm
Westford Weather
Compliments of Weather Underground

 
 
Current Radar Loop:

Copyright © WestfordWeather.net 2007-2014. All rights reserved.